Como, Colorado
Current Conditions -  °F | °C
As of 11:15 PM on Saturday 20 Dec 2014 (Local Time) from KCCU Reporting Station
Overcast Overcast  
Wind Chill:   Ceiling: 200
Heat Index: 19°   Visibility: NA
Dew Point: 14°   Wind: 26mph
Humidity: 80%   Direction: 280°W
Pressure: 30"   Gusts: 38mph
Location:  39.32°N, 105.89°W
Report Text: KCCU 210615Z AUTO 28023G33KT OVC002 M07/M10 A3000 RMK AO2 PWINO
Loading
Personal Weather Stations






























Interactive Weather Map New forecast layout! Learn more

10-Day Weather Forecast

Advertisements
Track Severe Weather on mobile